createdAt,value
2017-11-21T00:01:06.993Z,6.20
2017-11-21T00:03:35.216Z,6.20
2017-11-21T00:06:02.696Z,6.20
2017-11-21T00:08:30.216Z,6.20
2017-11-21T00:10:57.679Z,6.20
2017-11-21T00:13:25.167Z,6.20
2017-11-21T00:15:52.625Z,6.20
2017-11-21T00:18:20.103Z,6.20
2017-11-21T00:20:47.581Z,6.20
2017-11-21T00:23:15.068Z,6.20
2017-11-21T00:25:42.529Z,6.20
2017-11-21T00:28:10.771Z,6.20
2017-11-21T00:30:38.232Z,6.20
2017-11-21T00:33:05.705Z,6.20
2017-11-21T00:35:33.178Z,6.20
2017-11-21T00:38:00.648Z,6.20
2017-11-21T00:40:28.894Z,6.30
2017-11-21T00:42:56.388Z,6.30
2017-11-21T00:45:23.860Z,6.30
2017-11-21T00:47:51.334Z,6.30
2017-11-21T00:50:19.576Z,6.30
2017-11-21T00:52:47.046Z,6.30
2017-11-21T00:55:14.518Z,6.30
2017-11-21T00:57:42.012Z,6.30
2017-11-21T01:00:10.253Z,6.20
2017-11-21T01:02:37.724Z,6.30
2017-11-21T01:05:05.187Z,6.30
2017-11-21T01:07:32.661Z,6.30
2017-11-21T01:10:00.139Z,6.30
2017-11-21T01:12:28.380Z,6.30
2017-11-21T01:14:55.855Z,6.30
2017-11-21T01:17:23.317Z,6.30
2017-11-21T01:19:50.794Z,6.30
2017-11-21T01:22:18.262Z,6.30
2017-11-21T01:24:46.500Z,6.40
2017-11-21T01:27:13.970Z,6.40
2017-11-21T01:29:41.444Z,6.40
2017-11-21T01:32:08.925Z,6.40
2017-11-21T01:34:36.379Z,6.40
2017-11-21T01:37:03.845Z,6.40
2017-11-21T01:39:31.328Z,6.40
2017-11-21T01:41:59.554Z,6.40
2017-11-21T01:44:27.023Z,6.40
2017-11-21T01:46:54.483Z,6.50
2017-11-21T01:49:21.957Z,6.50
2017-11-21T01:51:49.425Z,6.50
2017-11-21T01:54:16.903Z,6.50
2017-11-21T01:56:45.135Z,6.50
2017-11-21T01:59:12.614Z,6.50
2017-11-21T02:01:40.094Z,6.50
2017-11-21T02:04:07.562Z,6.50
2017-11-21T02:06:35.029Z,6.50
2017-11-21T02:09:02.494Z,6.50
2017-11-21T02:11:29.969Z,6.50
2017-11-21T02:13:58.199Z,6.50
2017-11-21T02:16:25.671Z,6.50
2017-11-21T02:18:53.138Z,6.50
2017-11-21T02:21:20.608Z,6.40
2017-11-21T02:23:48.067Z,6.40
2017-11-21T02:26:15.560Z,6.40
2017-11-21T02:28:43.790Z,6.40
2017-11-21T02:31:11.275Z,6.40
2017-11-21T02:33:38.754Z,6.40
2017-11-21T02:36:06.220Z,6.40
2017-11-21T02:38:34.447Z,6.50
2017-11-21T02:41:01.933Z,6.40
2017-11-21T02:43:29.400Z,6.40
2017-11-21T02:45:56.874Z,6.40
2017-11-21T02:48:24.336Z,6.50
2017-11-21T02:50:51.811Z,6.50
2017-11-21T02:53:19.273Z,6.40
2017-11-21T02:55:46.747Z,6.40
2017-11-21T02:58:14.984Z,6.40
2017-11-21T03:00:42.441Z,6.40
2017-11-21T03:03:09.913Z,6.50
2017-11-21T03:05:37.420Z,6.40
2017-11-21T03:08:04.896Z,6.40
2017-11-21T03:10:32.366Z,6.40
2017-11-21T03:12:59.847Z,6.50
2017-11-21T03:15:27.324Z,6.40
2017-11-21T03:17:54.784Z,6.50
2017-11-21T03:20:34.151Z,6.40
2017-11-21T03:23:13.615Z,6.40
2017-11-21T03:25:53.041Z,6.40
2017-11-21T03:28:32.613Z,6.50
2017-11-21T03:31:00.076Z,6.40
2017-11-21T03:33:27.547Z,6.40
2017-11-21T03:35:55.064Z,6.50
2017-11-21T03:38:22.545Z,6.50
2017-11-21T03:40:50.002Z,6.50
2017-11-21T03:43:17.510Z,6.50
2017-11-21T03:45:44.967Z,6.50
2017-11-21T03:48:12.440Z,6.40
2017-11-21T03:50:40.697Z,6.40
2017-11-21T03:53:08.167Z,6.40
2017-11-21T03:55:35.661Z,6.50
2017-11-21T03:58:03.163Z,6.50
2017-11-21T04:00:30.626Z,6.50
2017-11-21T04:02:58.105Z,6.50
2017-11-21T04:05:25.584Z,6.50
2017-11-21T04:07:53.059Z,6.50
2017-11-21T04:10:21.308Z,6.50
2017-11-21T04:12:48.774Z,6.50
2017-11-21T04:15:16.245Z,6.50
2017-11-21T04:17:43.762Z,6.50
2017-11-21T04:20:11.231Z,6.50
2017-11-21T04:22:38.729Z,6.50
2017-11-21T04:25:06.214Z,6.50
2017-11-21T04:27:34.467Z,6.60
2017-11-21T04:30:01.933Z,6.50
2017-11-21T04:32:29.435Z,6.50
2017-11-21T04:34:57.686Z,6.60
2017-11-21T04:37:25.138Z,6.60
2017-11-21T04:39:52.620Z,6.50
2017-11-21T04:42:20.084Z,6.60
2017-11-21T04:44:47.555Z,6.60
2017-11-21T04:47:15.788Z,6.60
2017-11-21T04:49:43.270Z,6.50
2017-11-21T04:52:10.729Z,6.50
2017-11-21T04:54:38.203Z,6.50
2017-11-21T04:57:05.701Z,6.60
2017-11-21T04:59:33.169Z,6.60
2017-11-21T05:02:00.626Z,6.60
2017-11-21T05:04:28.876Z,6.60
2017-11-21T05:06:56.357Z,6.60
2017-11-21T05:09:24.583Z,6.60
2017-11-21T05:11:52.038Z,6.60
2017-11-21T05:14:19.505Z,6.60
2017-11-21T05:16:46.953Z,6.60
2017-11-21T05:19:14.441Z,6.60
2017-11-21T05:21:41.928Z,6.60
2017-11-21T05:24:09.418Z,6.60
2017-11-21T05:26:37.646Z,6.60
2017-11-21T05:29:05.114Z,6.60
2017-11-21T05:31:32.607Z,6.70
2017-11-21T05:34:00.100Z,6.70
2017-11-21T05:36:27.550Z,6.70
2017-11-21T05:38:55.774Z,6.60
2017-11-21T05:41:23.267Z,6.60
2017-11-21T05:43:53.600Z,6.60
2017-11-21T05:46:21.852Z,6.70
2017-11-21T05:48:49.307Z,6.60
2017-11-21T05:51:16.795Z,6.60
2017-11-21T05:53:44.242Z,6.60
2017-11-21T05:56:11.732Z,6.60
2017-11-21T05:58:39.212Z,6.70
2017-11-21T06:01:07.449Z,6.60
2017-11-21T06:03:35.003Z,6.60
2017-11-21T06:06:02.506Z,6.70
2017-11-21T06:08:30.749Z,6.70
2017-11-21T06:10:58.214Z,6.60
2017-11-21T06:13:25.691Z,6.60
2017-11-21T06:15:53.164Z,6.60
2017-11-21T06:18:20.656Z,6.60
2017-11-21T06:20:48.906Z,6.70
2017-11-21T06:23:16.410Z,6.60
2017-11-21T06:25:43.899Z,6.60
2017-11-21T06:28:11.358Z,6.70
2017-11-21T06:30:38.860Z,6.60
2017-11-21T06:33:06.838Z,6.60
2017-11-21T06:35:34.318Z,6.60
2017-11-21T06:38:02.552Z,6.60
2017-11-21T06:40:30.018Z,6.60
2017-11-21T06:42:57.498Z,6.70
2017-11-21T06:45:24.989Z,6.70
2017-11-21T06:47:53.219Z,6.70
2017-11-21T06:50:21.516Z,6.70
2017-11-21T06:52:49.000Z,6.70
2017-11-21T06:55:16.460Z,6.70
2017-11-21T06:57:43.936Z,6.70
2017-11-21T07:00:12.167Z,6.70
2017-11-21T07:02:39.687Z,6.70
2017-11-21T07:05:07.923Z,6.70
2017-11-21T07:07:35.401Z,6.70
2017-11-21T07:10:02.863Z,6.70
2017-11-21T07:12:30.336Z,6.70
2017-11-21T07:14:58.594Z,6.70
2017-11-21T07:17:26.079Z,6.70
2017-11-21T07:19:54.312Z,6.80
2017-11-21T07:22:21.867Z,6.70
2017-11-21T07:24:49.338Z,6.80
2017-11-21T07:27:17.586Z,6.80
2017-11-21T07:29:45.047Z,6.70
2017-11-21T07:32:13.270Z,6.80
2017-11-21T07:34:40.739Z,6.80
2017-11-21T07:37:08.219Z,6.80
2017-11-21T07:39:35.692Z,6.80
2017-11-21T07:42:03.170Z,6.80
2017-11-21T07:44:31.403Z,6.80
2017-11-21T07:46:58.894Z,6.70
2017-11-21T07:49:26.387Z,6.80
2017-11-21T07:51:55.593Z,6.70
2017-11-21T07:54:23.092Z,6.70
2017-11-21T07:56:50.557Z,6.70
2017-11-21T07:59:18.022Z,6.80
2017-11-21T08:01:45.493Z,6.80
2017-11-21T08:04:12.973Z,6.70
2017-11-21T08:06:40.438Z,6.80
2017-11-21T08:09:08.704Z,6.80
2017-11-21T08:11:36.196Z,6.80
2017-11-21T08:14:03.655Z,6.80
2017-11-21T08:16:31.284Z,6.80
2017-11-21T08:18:58.775Z,6.80
2017-11-21T08:21:26.252Z,6.80
2017-11-21T08:23:54.499Z,6.80
2017-11-21T08:26:21.968Z,6.80
2017-11-21T08:28:49.427Z,6.90
2017-11-21T08:31:16.898Z,6.90
2017-11-21T08:33:44.364Z,6.80
2017-11-21T08:36:11.827Z,6.90
2017-11-21T08:38:39.311Z,6.90
2017-11-21T08:41:07.547Z,7.00
2017-11-21T08:43:35.022Z,6.90
2017-11-21T08:46:02.534Z,7.00
2017-11-21T08:48:29.994Z,6.90
2017-11-21T08:50:57.470Z,7.00
2017-11-21T08:53:24.970Z,7.00
2017-11-21T08:58:26.484Z,7.00
2017-11-21T09:00:53.968Z,7.00
2017-11-21T09:03:21.439Z,7.00
2017-11-21T09:05:48.931Z,7.00
2017-11-21T09:08:16.403Z,7.00
2017-11-21T09:10:45.862Z,7.00
2017-11-21T09:13:13.845Z,7.00
2017-11-21T09:15:41.321Z,7.10
2017-11-21T09:18:08.788Z,7.00
2017-11-21T09:20:36.254Z,7.10
2017-11-21T09:23:03.735Z,7.10
2017-11-21T09:25:31.216Z,7.10
2017-11-21T09:27:58.686Z,7.10
2017-11-21T09:30:26.924Z,7.20
2017-11-21T09:32:54.406Z,7.20
2017-11-21T09:35:21.886Z,7.20
2017-11-21T09:37:49.338Z,7.30
2017-11-21T09:40:16.803Z,7.30
2017-11-21T09:42:44.267Z,7.30
2017-11-21T09:45:11.730Z,7.40
2017-11-21T09:47:39.971Z,7.40
2017-11-21T09:50:07.434Z,7.40
2017-11-21T09:52:34.907Z,7.50
2017-11-21T09:55:02.376Z,7.50
2017-11-21T09:57:29.886Z,7.50
2017-11-21T09:59:57.375Z,7.60
2017-11-21T10:02:24.864Z,7.60
2017-11-21T10:04:52.368Z,7.60
2017-11-21T10:07:20.601Z,7.60
2017-11-21T10:09:48.072Z,7.60
2017-11-21T10:12:15.528Z,7.70
2017-11-21T10:14:43.004Z,7.70
2017-11-21T10:17:10.462Z,7.80
2017-11-21T10:19:37.930Z,7.80
2017-11-21T10:22:05.389Z,7.90
2017-11-21T10:24:32.857Z,7.90
2017-11-21T10:27:00.350Z,8.00
2017-11-21T10:29:27.854Z,8.10
2017-11-21T10:31:55.362Z,8.10
2017-11-21T10:34:23.628Z,8.20
2017-11-21T10:36:51.090Z,8.20
2017-11-21T10:39:18.549Z,8.20
2017-11-21T10:41:46.019Z,8.30
2017-11-21T10:44:13.501Z,8.30
2017-11-21T10:46:41.745Z,8.40
2017-11-21T10:49:09.213Z,8.40
2017-11-21T10:51:36.679Z,8.40
2017-11-21T10:54:04.118Z,8.50
2017-11-21T10:56:32.115Z,8.50
2017-11-21T10:58:59.579Z,8.50
2017-11-21T11:01:27.058Z,8.60
2017-11-21T11:03:56.111Z,8.70
2017-11-21T11:06:23.595Z,8.70
2017-11-21T11:08:51.048Z,8.70
2017-11-21T11:11:18.519Z,8.80
2017-11-21T11:13:45.978Z,8.80
2017-11-21T11:16:14.441Z,8.90
2017-11-21T11:18:41.926Z,9.00
2017-11-21T11:21:10.278Z,8.90
2017-11-21T11:23:37.751Z,9.00
2017-11-21T11:26:05.229Z,9.10
2017-11-21T11:28:33.865Z,9.20
2017-11-21T11:31:02.092Z,9.30
2017-11-21T11:33:29.561Z,9.30
2017-11-21T11:35:57.030Z,9.30
2017-11-21T11:38:24.489Z,9.30
2017-11-21T11:40:51.956Z,9.30
2017-11-21T11:43:19.434Z,9.40
2017-11-21T11:45:46.934Z,9.40
2017-11-21T11:48:14.401Z,9.50
2017-11-21T11:50:41.886Z,9.50
2017-11-21T11:53:09.358Z,9.60
2017-11-21T11:55:36.994Z,9.60
2017-11-21T11:58:04.460Z,9.60
2017-11-21T12:00:31.976Z,9.70
2017-11-21T12:02:59.431Z,9.80
2017-11-21T12:05:26.916Z,9.90
2017-11-21T12:07:55.142Z,10.00
2017-11-21T12:10:22.620Z,10.00
2017-11-21T12:12:50.092Z,10.00
2017-11-21T12:15:17.566Z,10.10
2017-11-21T12:17:45.043Z,10.00
2017-11-21T12:20:13.282Z,10.00
2017-11-21T12:22:40.747Z,10.00
2017-11-21T12:25:08.194Z,10.00
2017-11-21T12:27:35.672Z,10.10
2017-11-21T12:30:03.155Z,10.10
2017-11-21T12:32:30.620Z,10.30
2017-11-21T12:34:58.082Z,10.20
2017-11-21T12:37:25.545Z,10.20
2017-11-21T12:39:53.010Z,10.20
2017-11-21T12:42:20.509Z,10.30
2017-11-21T12:44:47.983Z,10.30
2017-11-21T12:47:15.470Z,10.20
2017-11-21T12:49:42.940Z,10.30
2017-11-21T12:52:10.402Z,10.30
2017-11-21T12:54:37.914Z,10.40
2017-11-21T12:57:06.162Z,10.50
2017-11-21T12:59:33.641Z,10.50
2017-11-21T13:02:01.870Z,10.50
2017-11-21T13:04:29.341Z,10.40
2017-11-21T13:06:56.797Z,10.50
2017-11-21T13:09:24.266Z,10.50
2017-11-21T13:11:51.750Z,10.50
2017-11-21T13:14:19.228Z,10.50
2017-11-21T13:16:46.694Z,10.50
2017-11-21T13:19:14.147Z,10.40
2017-11-21T13:21:41.606Z,10.40
2017-11-21T13:24:09.082Z,10.30
2017-11-21T13:26:37.342Z,10.30
2017-11-21T13:29:04.833Z,10.30
2017-11-21T13:31:33.160Z,10.30
2017-11-21T13:34:00.651Z,10.30
2017-11-21T13:36:28.106Z,10.30
2017-11-21T13:38:55.570Z,10.40
2017-11-21T13:41:23.145Z,10.40
2017-11-21T13:43:50.612Z,10.40
2017-11-21T13:46:18.088Z,10.40
2017-11-21T13:48:46.315Z,10.40
2017-11-21T13:51:13.880Z,10.40
2017-11-21T13:53:41.388Z,10.30
2017-11-21T13:56:08.850Z,10.40
2017-11-21T13:58:37.085Z,10.30
2017-11-21T14:01:04.557Z,10.30
2017-11-21T14:03:32.033Z,10.30
2017-11-21T14:05:59.497Z,10.30
2017-11-21T14:08:26.974Z,10.30
2017-11-21T14:10:54.458Z,10.30
2017-11-21T14:13:22.687Z,10.30
2017-11-21T14:15:50.154Z,10.30
2017-11-21T14:18:17.621Z,10.30
2017-11-21T14:20:45.104Z,10.30
2017-11-21T14:23:12.558Z,10.30
2017-11-21T14:25:40.037Z,10.30
2017-11-21T14:28:07.498Z,10.30
2017-11-21T14:30:34.977Z,10.40
2017-11-21T14:33:03.188Z,10.50
2017-11-21T14:35:30.673Z,10.40
2017-11-21T14:37:58.156Z,10.50
2017-11-21T14:40:25.619Z,10.50
2017-11-21T14:42:53.092Z,10.50
2017-11-21T14:45:20.559Z,10.60
2017-11-21T14:47:48.018Z,10.60
2017-11-21T14:50:15.499Z,10.60
2017-11-21T14:52:43.755Z,10.60
2017-11-21T14:55:11.238Z,10.60
2017-11-21T14:57:39.499Z,10.70
2017-11-21T15:00:06.963Z,10.60
2017-11-21T15:02:34.451Z,10.60
2017-11-21T15:05:02.693Z,10.50
2017-11-21T15:07:30.205Z,10.50
2017-11-21T15:09:57.679Z,10.60
2017-11-21T15:12:25.144Z,10.60
2017-11-21T15:14:52.617Z,10.50
2017-11-21T15:17:20.091Z,10.50
2017-11-21T15:19:47.547Z,10.40
2017-11-21T15:22:15.036Z,10.40
2017-11-21T15:24:42.482Z,10.40
2017-11-21T15:27:09.952Z,10.40
2017-11-21T15:29:37.436Z,10.40
2017-11-21T15:32:04.920Z,10.40
2017-11-21T15:34:33.155Z,10.30
2017-11-21T15:37:00.644Z,10.30
2017-11-21T15:39:28.143Z,10.30
2017-11-21T15:41:55.595Z,10.20
2017-11-21T15:44:23.070Z,10.20
2017-11-21T15:46:50.531Z,10.20
2017-11-21T15:49:18.030Z,10.10
2017-11-21T15:51:45.504Z,10.10
2017-11-21T15:54:12.993Z,10.10
2017-11-21T15:56:41.215Z,9.90
2017-11-21T15:59:08.696Z,9.90
2017-11-21T16:01:36.148Z,9.90
2017-11-21T16:04:03.631Z,9.90
2017-11-21T16:06:31.073Z,9.80
2017-11-21T16:08:58.550Z,9.70
2017-11-21T16:11:26.007Z,9.70
2017-11-21T16:13:53.480Z,9.70
2017-11-21T16:16:20.967Z,9.70
2017-11-21T16:18:48.429Z,9.70
2017-11-21T16:21:16.650Z,9.50
2017-11-21T16:23:44.898Z,9.40
2017-11-21T16:26:13.120Z,9.40
2017-11-21T16:28:40.587Z,9.40
2017-11-21T16:31:08.054Z,9.40
2017-11-21T16:33:35.529Z,9.40
2017-11-21T16:36:04.135Z,9.30
2017-11-21T16:38:33.597Z,9.30
2017-11-21T16:41:01.058Z,9.30
2017-11-21T16:43:28.544Z,9.20
2017-11-21T16:45:56.019Z,9.10
2017-11-21T16:48:23.500Z,9.20
2017-11-21T16:50:51.730Z,9.20
2017-11-21T16:53:19.982Z,9.20
2017-11-21T16:55:48.208Z,9.20
2017-11-21T16:58:15.666Z,9.10
2017-11-21T17:00:43.202Z,9.20
2017-11-21T17:03:10.676Z,9.10
2017-11-21T17:05:38.148Z,9.10
2017-11-21T17:08:06.614Z,9.10
2017-11-21T17:10:34.094Z,9.10
2017-11-21T17:13:01.563Z,9.00
2017-11-21T17:15:29.046Z,9.00
2017-11-21T17:17:56.579Z,9.00
2017-11-21T17:20:24.051Z,9.00
2017-11-21T17:22:51.529Z,9.00
2017-11-21T17:25:19.026Z,8.90
2017-11-21T17:27:47.250Z,8.90
2017-11-21T17:30:14.717Z,8.90
2017-11-21T17:32:42.208Z,8.80
2017-11-21T17:35:09.671Z,8.80
2017-11-21T17:37:37.139Z,8.80
2017-11-21T17:40:04.595Z,8.80
2017-11-21T17:42:32.047Z,8.80
2017-11-21T17:44:59.510Z,8.80
2017-11-21T17:47:27.750Z,8.80
2017-11-21T17:49:55.239Z,8.80
2017-11-21T17:52:22.697Z,8.80
2017-11-21T17:54:50.176Z,8.80
2017-11-21T17:57:17.630Z,8.80
2017-11-21T17:59:45.112Z,8.80
2017-11-21T18:02:12.590Z,8.80
2017-11-21T18:04:40.072Z,8.80
2017-11-21T18:07:08.301Z,8.80
2017-11-21T18:09:35.774Z,8.80
2017-11-21T18:12:03.275Z,8.80
2017-11-21T18:14:31.507Z,8.80
2017-11-21T18:16:58.967Z,8.80
2017-11-21T18:19:26.423Z,8.80
2017-11-21T18:21:53.896Z,8.90
2017-11-21T18:24:21.358Z,8.80
2017-11-21T18:26:48.860Z,8.80
2017-11-21T18:29:17.091Z,8.80
2017-11-21T18:31:44.559Z,8.80
2017-11-21T18:34:12.818Z,8.80
2017-11-21T18:36:40.287Z,8.80
2017-11-21T18:39:07.763Z,8.80
2017-11-21T18:41:35.246Z,8.80
2017-11-21T18:44:02.694Z,8.80
2017-11-21T18:46:30.177Z,8.80
2017-11-21T18:48:57.648Z,8.70
2017-11-21T18:51:25.899Z,8.70
2017-11-21T18:53:53.365Z,8.60
2017-11-21T18:56:21.634Z,8.60
2017-11-21T18:58:49.098Z,8.60
2017-11-21T19:01:16.574Z,8.60
2017-11-21T19:03:44.795Z,8.40
2017-11-21T19:06:13.019Z,8.30
2017-11-21T19:08:40.485Z,8.30
2017-11-21T19:11:07.949Z,8.30
2017-11-21T19:13:35.426Z,8.30
2017-11-21T19:16:02.907Z,8.30
2017-11-21T19:18:30.383Z,8.30
2017-11-21T19:20:59.531Z,8.30
2017-11-21T19:23:27.000Z,8.20
2017-11-21T19:25:54.458Z,8.30
2017-11-21T19:28:21.937Z,8.30
2017-11-21T19:30:49.412Z,8.20
2017-11-21T19:33:16.900Z,8.20
2017-11-21T19:35:45.130Z,8.20
2017-11-21T19:38:12.624Z,8.20
2017-11-21T19:40:40.078Z,8.30
2017-11-21T19:43:07.551Z,8.30
2017-11-21T19:45:35.828Z,8.20
2017-11-21T19:48:03.324Z,8.20
2017-11-21T19:50:31.552Z,8.20
2017-11-21T19:52:59.043Z,8.20
2017-11-21T19:55:26.539Z,8.20
2017-11-21T19:57:54.955Z,8.20
2017-11-21T20:00:22.435Z,8.20
2017-11-21T20:02:49.927Z,8.10
2017-11-21T20:05:18.155Z,8.20
2017-11-21T20:07:45.659Z,8.20
2017-11-21T20:10:13.119Z,8.20
2017-11-21T20:12:40.588Z,8.10
2017-11-21T20:15:08.851Z,8.10
2017-11-21T20:17:36.378Z,8.10
2017-11-21T20:20:04.650Z,8.10
2017-11-21T20:22:32.126Z,8.10
2017-11-21T20:25:00.476Z,8.00
2017-11-21T20:27:27.955Z,8.00
2017-11-21T20:29:55.416Z,8.10
2017-11-21T20:32:22.905Z,8.00
2017-11-21T20:34:50.378Z,8.00
2017-11-21T20:37:17.876Z,8.00
2017-11-21T20:39:46.111Z,7.90
2017-11-21T20:42:13.583Z,7.90
2017-11-21T20:44:41.190Z,7.90
2017-11-21T20:47:09.432Z,7.90
2017-11-21T20:49:36.906Z,7.90
2017-11-21T20:52:04.375Z,7.90
2017-11-21T20:54:32.635Z,7.80
2017-11-21T20:57:00.113Z,7.80
2017-11-21T20:59:27.582Z,7.80
2017-11-21T21:01:55.802Z,7.80
2017-11-21T21:04:24.026Z,7.90
2017-11-21T21:06:51.494Z,7.80
2017-11-21T21:09:18.963Z,7.90
2017-11-21T21:11:46.434Z,7.90
2017-11-21T21:14:14.707Z,7.80
2017-11-21T21:16:42.175Z,7.70
2017-11-21T21:19:10.425Z,7.80
2017-11-21T21:21:37.882Z,7.80
2017-11-21T21:24:05.389Z,7.80
2017-11-21T21:26:33.646Z,7.80
2017-11-21T21:29:01.098Z,7.80
2017-11-21T21:31:29.321Z,7.70
2017-11-21T21:33:57.577Z,7.60
2017-11-21T21:36:25.046Z,7.60
2017-11-21T21:38:52.511Z,7.60
2017-11-21T21:41:20.772Z,7.60
2017-11-21T21:43:48.233Z,7.60
2017-11-21T21:46:15.683Z,7.60
2017-11-21T21:48:43.147Z,7.60
2017-11-21T21:51:10.594Z,7.70
2017-11-21T21:53:38.081Z,7.60
2017-11-21T21:56:06.535Z,7.60
2017-11-21T21:58:33.977Z,7.60
2017-11-21T22:01:01.451Z,7.60
2017-11-21T22:03:28.919Z,7.60
2017-11-21T22:05:56.463Z,7.60
2017-11-21T22:08:23.916Z,7.60
2017-11-21T22:10:52.158Z,7.60
2017-11-21T22:13:19.631Z,7.60
2017-11-21T22:15:47.121Z,7.60
2017-11-21T22:18:15.376Z,7.60
2017-11-21T22:20:42.845Z,7.60
2017-11-21T22:23:10.288Z,7.50
2017-11-21T22:25:37.761Z,7.50
2017-11-21T22:28:05.210Z,7.50
2017-11-21T22:30:32.677Z,7.50
2017-11-21T22:33:00.144Z,7.50
2017-11-21T22:35:27.608Z,7.50
2017-11-21T22:37:55.066Z,7.50
2017-11-21T22:40:22.543Z,7.40
2017-11-21T22:42:49.993Z,7.50
2017-11-21T22:45:17.466Z,7.50
2017-11-21T22:47:44.917Z,7.40
2017-11-21T22:50:12.405Z,7.40
2017-11-21T22:52:40.653Z,7.40
2017-11-21T22:55:08.124Z,7.40
2017-11-21T22:57:35.615Z,7.40
2017-11-21T23:00:03.851Z,7.30
2017-11-21T23:02:31.314Z,7.30
2017-11-21T23:04:58.804Z,7.30
2017-11-21T23:07:26.259Z,7.40
2017-11-21T23:09:53.718Z,7.30
2017-11-21T23:12:21.194Z,7.40
2017-11-21T23:14:48.675Z,7.40
2017-11-21T23:17:16.130Z,7.40
2017-11-21T23:19:43.603Z,7.40
2017-11-21T23:22:11.071Z,7.50
2017-11-21T23:24:38.527Z,7.50
2017-11-21T23:27:05.996Z,7.50
2017-11-21T23:29:33.466Z,7.50
2017-11-21T23:32:01.703Z,7.50
2017-11-21T23:34:29.154Z,7.50
2017-11-21T23:36:56.611Z,7.50
2017-11-21T23:39:24.066Z,7.60
2017-11-21T23:41:51.550Z,7.50
2017-11-21T23:44:18.997Z,7.50
2017-11-21T23:46:46.462Z,7.50
2017-11-21T23:49:13.912Z,7.50
2017-11-21T23:51:41.382Z,7.50
2017-11-21T23:54:08.856Z,7.50
2017-11-21T23:56:36.327Z,7.30
2017-11-21T23:59:04.549Z,7.10
